Terminal Aerodrome Forecast
Issued by NWS

Home | Current Version | Previous Version | Text Only | Print | Product List | Glossary On
Versions: 1 2 3 4 5 6 7 8 9 10 11 12 13 14 15
000
FTUS45 KCYS 301120
TAFAIA
TAF
KAIA 301120Z 3012/3112 30005KT P6SM FEW100
     FM301800 34011KT P6SM SCT150
     FM302100 02008KT P6SM SCT150
     FM310300 07007KT P6SM SCT150=

USA.gov is the U.S. government's official web portal to all federal, state and local government web resources and services.